Time;durP1;ratioP1;P1;durP2;ratioP2;P2;SDS_P1;SDS_P2;PMS_P1;PMS_P2;Temp;Humidity;BMP_temperature;BMP_pressure;BME280_temperature;BME280_humidity;BME280_pressure;Samples;Min_cycle;Max_cycle;Signal;HPM_P1;HPM_P2
2022/03/26 10:16:06;;;;;;;31.70;23.13;;;14.70;71.80;;;;;;2299518;62;30191;-70
2022/03/26 10:18:35;;;;;;;31.38;21.10;;;14.70;70.90;;;;;;2281116;62;30410;-71
2022/03/26 10:21:08;;;;;;;27.08;20.90;;;14.70;71.00;;;;;;2276191;62;30401;-70
2022/03/26 10:23:34;;;;;;;29.10;19.75;;;14.70;72.00;;;;;;2283091;62;32227;-71
2022/03/26 10:26:17;;;;;;;25.95;18.98;;;14.70;72.50;;;;;;2288717;62;30404;-71
2022/03/26 10:28:43;;;;;;;26.60;19.48;;;14.70;73.10;;;;;;2282939;62;30817;-69
2022/03/26 10:34:09;;;;;;;24.08;18.05;;;14.80;73.70;;;;;;2276414;62;30363;-70
2022/03/26 10:36:45;;;;;;;23.65;17.73;;;14.80;73.70;;;;;;2275395;62;30340;-72
2022/03/26 10:39:16;;;;;;;24.08;17.02;;;14.80;74.10;;;;;;2269174;62;31002;-70
2022/03/26 10:41:42;;;;;;;23.20;16.92;;;14.80;74.10;;;;;;2275267;62;30257;-77
2022/03/26 10:44:18;;;;;;;19.45;15.05;;;14.80;74.10;;;;;;2274932;62;32218;-72
2022/03/26 10:47:04;;;;;;;20.05;14.73;;;14.90;73.80;;;;;;2275211;62;30532;-73
2022/03/26 10:49:36;;;;;;;19.88;15.15;;;14.90;73.30;;;;;;2275366;62;30322;-73
2022/03/26 10:52:12;;;;;;;19.67;14.65;;;15.00;74.10;;;;;;2268692;62;30409;-73
2022/03/26 10:54:38;;;;;;;19.42;14.00;;;15.00;73.70;;;;;;2281907;62;30352;-73
2022/03/26 10:57:04;;;;;;;16.00;12.90;;;15.00;74.00;;;;;;2274953;62;30421;-73
2022/03/26 10:59:30;;;;;;;16.88;12.93;;;15.10;73.90;;;;;;2268182;62;30329;-72
2022/03/26 11:01:57;;;;;;;16.92;12.75;;;15.10;73.80;;;;;;2282516;62;30168;-73
2022/03/26 11:04:26;;;;;;;17.48;11.85;;;15.10;73.80;;;;;;2282196;62;30206;-73
2022/03/26 11:06:52;;;;;;;16.67;12.77;;;15.10;73.60;;;;;;2276778;62;31749;-73
2022/03/26 11:09:18;;;;;;;14.48;12.23;;;15.20;73.60;;;;;;2291001;62;30642;-73
2022/03/26 11:11:48;;;;;;;14.35;10.70;;;15.20;73.50;;;;;;2290904;62;30233;-73
2022/03/26 11:14:16;;;;;;;14.48;10.63;;;15.20;73.60;;;;;;2283228;62;30796;-73
2022/03/26 11:17:03;;;;;;;15.07;10.07;;;15.30;73.50;;;;;;2290529;62;31806;-73
2022/03/26 11:19:40;;;;;;;12.15;10.50;;;15.30;72.80;;;;;;2290651;62;30969;-73
2022/03/26 11:22:14;;;;;;;12.40;9.52;;;15.40;73.20;;;;;;2290914;62;30366;-73
2022/03/26 11:25:03;;;;;;;12.00;9.50;;;15.40;73.10;;;;;;2290834;62;30150;-73
2022/03/26 11:27:38;;;;;;;;;;;15.50;73.00;;;;;;2273145;62;30537;-73
2022/03/26 11:30:06;;;;;;;11.27;9.18;;;15.50;72.00;;;;;;2285679;62;30067;-73
2022/03/26 11:32:37;;;;;;;10.52;8.65;;;15.50;72.90;;;;;;2285492;62;30079;-73
2022/03/26 11:35:07;;;;;;;11.60;8.43;;;15.60;72.90;;;;;;2277905;62;30204;-73
2022/03/26 11:37:38;;;;;;;9.60;8.60;;;15.60;72.80;;;;;;2278274;62;30802;-72
2022/03/26 11:40:05;;;;;;;9.60;8.40;;;15.70;72.60;;;;;;2278104;62;30002;-73
2022/03/26 11:42:31;;;;;;;12.00;7.30;;;15.70;72.50;;;;;;2285064;62;30214;-73
2022/03/26 11:50:42;;;;;;;8.85;7.10;;;16.00;72.00;;;;;;2285327;62;30158;-73
2022/03/26 11:53:10;;;;;;;7.07;5.97;;;16.00;71.80;;;;;;2277914;62;30294;-73
2022/03/26 11:55:44;;;;;;;6.63;5.93;;;16.10;71.60;;;;;;2270859;62;30265;-73
2022/03/26 11:58:16;;;;;;;6.55;5.57;;;16.10;71.10;;;;;;2277563;62;30436;-72
2022/03/26 12:00:55;;;;;;;6.47;5.78;;;16.20;71.10;;;;;;2284736;62;30015;-73
2022/03/26 12:03:25;;;;;;;8.50;5.90;;;16.30;70.60;;;;;;2284482;62;29987;-73
2022/03/26 12:08:56;;;;;;;6.00;5.38;;;16.40;70.50;;;;;;2284574;62;31995;-73
2022/03/26 12:11:25;;;;;;;6.68;5.22;;;16.50;70.40;;;;;;2285247;62;30236;-73
2022/03/26 12:14:06;;;;;;;6.10;4.68;;;16.40;70.30;;;;;;2284360;62;30390;-72
2022/03/26 12:16:51;;;;;;;;;;;16.50;69.80;;;;;;2285175;62;30651;-74
2022/03/26 12:19:36;;;;;;;8.88;6.55;;;16.50;70.00;;;;;;2284646;62;30241;-76
2022/03/26 12:22:26;;;;;;;8.00;6.88;;;16.50;68.80;;;;;;2284516;62;30474;-76
2022/03/26 12:24:58;;;;;;;10.45;7.05;;;16.50;69.30;;;;;;2285020;62;30215;-77
2022/03/26 12:27:24;;;;;;;10.30;7.68;;;16.50;68.70;;;;;;2284390;62;31528;-79
2022/03/26 12:29:56;;;;;;;12.45;7.95;;;16.40;69.40;;;;;;2284128;62;30452;-78
2022/03/26 12:32:28;;;;;;;10.30;7.75;;;16.40;69.10;;;;;;2277329;62;30253;-78
2022/03/26 12:35:05;;;;;;;8.65;7.22;;;16.40;68.80;;;;;;2285170;62;30259;-79
2022/03/26 12:37:34;;;;;;;9.40;7.43;;;16.30;68.80;;;;;;2283782;62;30335;-78
2022/03/26 12:40:00;;;;;;;11.77;7.13;;;16.40;69.20;;;;;;2285134;62;30103;-79
2022/03/26 12:42:26;;;;;;;8.50;7.25;;;16.30;68.90;;;;;;2284483;62;30144;-75
2022/03/26 12:44:52;;;;;;;9.32;6.65;;;16.40;69.20;;;;;;2282794;62;31040;-72
2022/03/26 12:47:19;;;;;;;9.35;7.15;;;16.40;68.90;;;;;;2268422;62;30931;-72
2022/03/26 12:49:48;;;;;;;13.02;6.68;;;16.40;68.70;;;;;;2270662;62;30781;-72
2022/03/26 12:52:18;;;;;;;11.27;6.53;;;16.40;68.40;;;;;;2277080;62;30207;-72
2022/03/26 12:54:51;;;;;;;9.77;6.55;;;16.40;68.40;;;;;;2284964;62;30307;-74
2022/03/26 12:57:17;;;;;;;9.60;6.20;;;16.50;68.50;;;;;;2277837;62;30230;-71
2022/03/26 12:59:53;;;;;;;10.50;6.10;;;16.50;68.30;;;;;;2284567;62;30406;-73
2022/03/26 13:02:20;;;;;;;6.63;5.57;;;16.60;68.70;;;;;;2277534;62;30250;-73
2022/03/26 13:04:53;;;;;;;6.32;4.93;;;16.60;68.00;;;;;;2264246;62;30426;-73
2022/03/26 13:07:19;;;;;;;10.93;5.45;;;16.70;67.50;;;;;;2269199;62;30316;-74
2022/03/26 13:09:45;;;;;;;6.53;4.97;;;16.60;67.70;;;;;;2269264;62;30141;-73
2022/03/26 13:12:27;;;;;;;6.85;4.50;;;16.60;67.80;;;;;;2269008;62;30087;-73
2022/03/26 13:14:53;;;;;;;10.45;4.82;;;16.60;67.20;;;;;;2261715;62;30322;-72
2022/03/26 13:17:20;;;;;;;5.95;3.85;;;16.70;67.90;;;;;;2269185;62;30092;-74
2022/03/26 13:19:46;;;;;;;7.20;4.90;;;16.70;67.80;;;;;;2268952;62;30713;-72
2022/03/26 13:22:15;;;;;;;5.97;4.88;;;16.70;67.60;;;;;;2268888;62;30418;-73
2022/03/26 13:24:53;;;;;;;6.75;4.85;;;16.60;67.50;;;;;;2276400;62;29975;-72
2022/03/26 13:27:20;;;;;;;6.03;4.32;;;16.60;67.00;;;;;;2268380;62;30168;-72
2022/03/26 13:29:46;;;;;;;10.88;4.65;;;16.70;67.60;;;;;;2276488;62;31538;-73
2022/03/26 13:32:12;;;;;;;7.10;4.20;;;16.80;67.50;;;;;;2281138;62;30175;-75
2022/03/26 13:34:41;;;;;;;7.50;4.13;;;17.00;67.50;;;;;;2276080;62;30573;-75
2022/03/26 13:37:07;;;;;;;3.75;3.22;;;17.10;67.20;;;;;;2276960;62;30126;-75
2022/03/26 13:39:33;;;;;;;6.70;3.70;;;17.30;67.10;;;;;;2284714;62;30427;-74
2022/03/26 13:42:16;;;;;;;6.35;3.20;;;17.40;66.80;;;;;;2277170;62;30216;-76
2022/03/26 13:44:42;;;;;;;7.60;3.20;;;17.50;66.10;;;;;;2277633;62;29906;-75
2022/03/26 13:47:20;;;;;;;8.00;2.95;;;17.60;66.10;;;;;;2277169;62;30090;-75
2022/03/26 13:50:11;;;;;;;4.57;2.90;;;17.60;66.10;;;;;;2271113;62;30173;-75
2022/03/26 13:52:38;;;;;;;4.95;3.22;;;17.70;65.90;;;;;;2284722;62;30135;-78
2022/03/26 13:55:29;;;;;;;6.07;2.72;;;17.80;66.30;;;;;;2277029;62;30175;-77
2022/03/26 13:57:56;;;;;;;5.72;2.80;;;17.80;65.50;;;;;;2284689;62;30885;-79
2022/03/26 14:00:27;;;;;;;8.90;3.10;;;17.90;66.00;;;;;;2284593;62;30158;-78
2022/03/26 14:02:53;;;;;;;6.35;2.60;;;17.90;65.70;;;;;;2270419;62;30219;-82
2022/03/26 14:05:26;;;;;;;3.92;2.67;;;18.00;65.70;;;;;;2270474;62;30181;-80
2022/03/26 14:07:56;;;;;;;3.88;2.50;;;18.10;65.30;;;;;;2277202;62;32346;-73
2022/03/26 14:10:52;;;;;;;4.68;2.45;;;18.20;65.40;;;;;;2284327;62;30504;-80
2022/03/26 14:13:18;;;;;;;4.70;2.60;;;18.20;64.70;;;;;;2275745;62;30451;-73
2022/03/26 14:15:44;;;;;;;3.83;2.30;;;18.20;65.20;;;;;;2284115;62;30411;-73
2022/03/26 14:18:10;;;;;;;2.60;2.05;;;18.30;65.20;;;;;;2277143;62;32006;-74
2022/03/26 14:20:36;;;;;;;3.17;2.53;;;18.40;65.00;;;;;;2284468;62;30460;-74
2022/03/26 14:23:08;;;;;;;4.78;2.30;;;18.40;64.80;;;;;;2277190;62;30203;-74
2022/03/26 14:25:36;;;;;;;3.28;2.15;;;18.40;64.80;;;;;;2284503;62;30318;-74
2022/03/26 14:28:04;;;;;;;4.80;2.35;;;18.40;64.70;;;;;;2276661;62;30355;-74
2022/03/26 14:30:30;;;;;;;4.15;2.30;;;18.40;64.80;;;;;;2276897;62;30048;-74
2022/03/26 14:32:57;;;;;;;4.97;2.47;;;18.30;64.80;;;;;;2284523;62;30149;-74
2022/03/26 14:35:23;;;;;;;2.55;2.20;;;18.20;64.80;;;;;;2276927;62;30268;-74
2022/03/26 14:37:49;;;;;;;2.95;2.15;;;18.10;64.90;;;;;;2284162;62;31132;-73
2022/03/26 14:40:15;;;;;;;3.53;2.30;;;18.10;65.10;;;;;;2283779;62;32110;-74
2022/03/26 14:42:41;;;;;;;2.22;2.00;;;18.00;65.20;;;;;;2284245;62;30412;-74
2022/03/26 14:45:16;;;;;;;3.13;2.28;;;17.90;66.00;;;;;;2284149;62;30102;-74
2022/03/26 14:47:42;;;;;;;3.33;2.15;;;17.80;65.40;;;;;;2284258;62;30084;-73
2022/03/26 14:50:08;;;;;;;2.63;2.00;;;17.80;65.50;;;;;;2284253;62;30833;-72
2022/03/26 14:52:35;;;;;;;3.92;3.08;;;17.70;65.50;;;;;;2276141;62;30195;-73
2022/03/26 14:55:01;;;;;;;7.38;3.90;;;17.70;65.30;;;;;;2284039;62;30269;-73
2022/03/26 14:57:27;;;;;;;8.65;5.40;;;17.60;65.00;;;;;;2283812;62;30845;-74
2022/03/26 14:59:53;;;;;;;6.90;5.20;;;17.40;65.00;;;;;;2284244;62;31940;-73
2022/03/26 15:02:19;;;;;;;8.13;4.90;;;17.30;65.30;;;;;;2285252;62;30030;-73
2022/03/26 15:04:45;;;;;;;7.38;4.80;;;17.20;65.40;;;;;;2271273;62;30209;-72
2022/03/26 15:07:11;;;;;;;7.22;4.45;;;17.10;65.50;;;;;;2285495;62;31787;-74
2022/03/26 15:09:36;;;;;;;5.00;3.85;;;17.10;65.50;;;;;;2278170;62;30282;-73
2022/03/26 15:12:03;;;;;;;4.80;3.88;;;17.10;65.60;;;;;;2285331;62;30185;-73
2022/03/26 15:14:28;;;;;;;6.10;4.10;;;17.00;65.50;;;;;;2285265;62;30236;-73
2022/03/26 15:16:59;;;;;;;6.65;4.45;;;16.90;65.40;;;;;;2285285;62;30166;-72
2022/03/26 15:19:25;;;;;;;6.90;4.30;;;17.00;65.40;;;;;;2283797;62;30232;-72
2022/03/26 15:21:51;;;;;;;7.45;3.85;;;17.20;65.30;;;;;;2284264;62;30064;-73
2022/03/26 15:24:18;;;;;;;7.15;4.20;;;17.20;65.00;;;;;;2274718;62;30244;-73
2022/03/26 15:26:44;;;;;;;8.52;4.53;;;17.00;65.10;;;;;;2284660;62;32509;-73
2022/03/26 15:29:11;;;;;;;6.65;4.20;;;17.00;65.30;;;;;;2285231;62;30675;-73
2022/03/26 15:31:39;;;;;;;6.25;4.05;;;17.00;65.30;;;;;;2284893;62;30591;-73
2022/03/26 15:34:06;;;;;;;6.47;3.97;;;17.20;65.40;;;;;;2284890;62;30290;-74
2022/03/26 15:36:32;;;;;;;5.07;3.70;;;17.70;64.80;;;;;;2274669;62;32198;-75
2022/03/26 15:38:58;;;;;;;6.45;3.97;;;18.70;63.80;;;;;;2275301;62;30938;-74
2022/03/26 15:41:23;;;;;;;5.07;3.42;;;19.70;62.00;;;;;;2281720;62;30157;-75
2022/03/26 15:43:52;;;;;;;5.63;3.60;;;20.60;60.40;;;;;;2283825;62;30174;-74
2022/03/26 15:46:18;;;;;;;5.38;3.40;;;21.30;58.50;;;;;;2280020;62;31978;-75
2022/03/26 15:48:53;;;;;;;5.50;3.58;;;22.00;57.70;;;;;;2276108;62;32313;-75
2022/03/26 15:51:18;;;;;;;6.47;3.40;;;22.50;56.40;;;;;;2275295;62;30434;-75
2022/03/26 15:53:44;;;;;;;4.68;3.00;;;22.90;55.20;;;;;;2267703;62;30189;-75
2022/03/26 15:56:10;;;;;;;10.38;3.38;;;23.30;54.30;;;;;;2268192;62;31948;-72
2022/03/26 15:58:36;;;;;;;6.18;3.35;;;23.40;53.40;;;;;;2282162;62;30599;-72
2022/03/26 16:01:03;;;;;;;6.43;2.90;;;23.70;52.90;;;;;;2282616;62;30844;-73
2022/03/26 16:03:29;;;;;;;5.70;3.22;;;23.80;52.40;;;;;;2283243;62;30343;-73
2022/03/26 16:05:54;;;;;;;4.57;3.03;;;23.80;52.20;;;;;;2275936;62;30974;-73
2022/03/26 16:08:20;;;;;;;4.57;2.63;;;23.90;51.90;;;;;;2283649;62;30121;-73
2022/03/26 16:10:46;;;;;;;6.50;3.05;;;23.90;51.40;;;;;;2282301;62;30526;-72
2022/03/26 16:13:17;;;;;;;3.33;3.03;;;23.90;51.20;;;;;;2275348;62;30274;-73
2022/03/26 16:15:55;;;;;;;5.30;3.30;;;23.40;51.20;;;;;;2283373;62;30001;-74
2022/03/26 16:18:21;;;;;;;5.18;3.20;;;23.00;51.50;;;;;;2283848;62;31621;-74
2022/03/26 16:20:47;;;;;;;6.78;3.63;;;22.90;52.20;;;;;;2283522;62;30574;-74
2022/03/26 16:23:17;;;;;;;6.80;3.60;;;22.90;51.90;;;;;;2283426;62;31133;-73
2022/03/26 16:25:53;;;;;;;4.47;3.50;;;22.50;52.10;;;;;;2276979;62;30855;-74
2022/03/26 16:28:20;;;;;;;4.80;3.05;;;21.90;53.30;;;;;;2283757;62;30621;-73
2022/03/26 16:30:46;;;;;;;6.60;2.92;;;21.30;54.40;;;;;;2283676;62;29981;-74
2022/03/26 16:33:12;;;;;;;4.28;2.80;;;20.80;55.60;;;;;;2283650;62;30218;-74
2022/03/26 16:35:38;;;;;;;4.13;3.22;;;20.30;56.50;;;;;;2283643;62;30018;-73
2022/03/26 16:38:04;;;;;;;3.67;3.10;;;19.90;57.50;;;;;;2283346;62;31504;-74
2022/03/26 16:40:29;;;;;;;9.30;3.53;;;19.60;58.20;;;;;;2283605;62;30323;-75
2022/03/26 16:43:03;;;;;;;4.43;3.03;;;19.30;58.90;;;;;;2283511;62;30252;-74
2022/03/26 16:45:44;;;;;;;2.83;2.60;;;19.10;59.90;;;;;;2282196;62;30918;-75
2022/03/26 16:48:19;;;;;;;4.95;2.78;;;19.00;61.10;;;;;;2276248;62;30975;-75
2022/03/26 16:50:48;;;;;;;4.72;2.70;;;18.90;62.20;;;;;;2268896;62;30102;-75
2022/03/26 16:53:17;;;;;;;3.35;2.45;;;18.70;62.50;;;;;;2270876;62;30249;-75
2022/03/26 16:55:46;;;;;;;4.00;3.17;;;18.60;62.90;;;;;;2275410;62;30080;-75
2022/03/26 16:58:11;;;;;;;3.00;2.70;;;18.50;63.60;;;;;;2267782;62;30644;-75
2022/03/26 17:00:37;;;;;;;6.07;2.75;;;18.40;63.90;;;;;;2268003;62;30103;-75
2022/03/26 17:03:03;;;;;;;3.70;2.60;;;18.20;64.10;;;;;;2275344;62;30749;-75
2022/03/26 17:05:29;;;;;;;5.38;2.63;;;18.20;64.30;;;;;;2266886;62;31410;-75
2022/03/26 17:08:01;;;;;;;12.95;2.83;;;18.10;64.40;;;;;;2274447;62;30750;-78
2022/03/26 17:10:27;;;;;;;6.00;2.50;;;18.00;64.70;;;;;;2267804;62;30322;-74
2022/03/26 17:12:53;;;;;;;5.30;2.90;;;17.80;64.10;;;;;;2277069;62;30155;-76
2022/03/26 17:15:19;;;;;;;3.40;2.50;;;17.80;64.00;;;;;;2282261;62;31363;-75
2022/03/26 17:17:44;;;;;;;3.47;2.60;;;17.80;64.00;;;;;;2283160;62;31062;-80
2022/03/26 17:20:10;;;;;;;3.97;2.40;;;17.70;64.00;;;;;;2275261;62;30408;-72
2022/03/26 17:22:37;;;;;;;4.40;2.70;;;17.60;63.90;;;;;;2282939;62;30335;-73
2022/03/26 17:25:06;;;;;;;3.80;2.20;;;17.60;63.90;;;;;;2282997;62;30919;-74
2022/03/26 17:27:34;;;;;;;23.10;4.07;;;17.50;64.00;;;;;;2283424;62;31804;-75
2022/03/26 17:30:03;;;;;;;3.43;2.70;;;17.40;64.00;;;;;;2283394;62;30124;-74
2022/03/26 17:32:29;;;;;;;4.97;2.50;;;17.30;64.00;;;;;;2283121;62;30293;-74
2022/03/26 17:34:55;;;;;;;4.22;2.38;;;17.30;64.10;;;;;;2283325;62;30186;-74
2022/03/26 17:37:30;;;;;;;3.75;2.50;;;17.30;64.30;;;;;;2283452;62;30163;-74
2022/03/26 17:39:59;;;;;;;4.15;2.60;;;17.20;64.50;;;;;;2283020;62;30784;-74
2022/03/26 17:42:25;;;;;;;5.40;3.15;;;17.10;64.50;;;;;;2282859;62;30495;-74
2022/03/26 17:44:51;;;;;;;3.28;2.85;;;17.20;64.40;;;;;;2275840;62;30135;-73
2022/03/26 17:47:17;;;;;;;4.93;2.95;;;17.00;64.50;;;;;;2283036;62;30518;-76
2022/03/26 17:49:47;;;;;;;3.85;2.50;;;17.00;64.90;;;;;;2283187;62;30436;-75
2022/03/26 17:52:13;;;;;;;3.50;2.35;;;17.00;65.20;;;;;;2283615;62;30254;-75
2022/03/26 17:54:39;;;;;;;2.85;2.35;;;17.00;65.20;;;;;;2283858;62;30849;-75
2022/03/26 17:57:05;;;;;;;4.65;2.60;;;17.00;65.40;;;;;;2274463;62;32170;-74
2022/03/26 17:59:31;;;;;;;3.95;2.47;;;16.90;65.60;;;;;;2274523;62;35044;-75
2022/03/26 18:01:57;;;;;;;3.75;2.58;;;16.90;65.60;;;;;;2283003;62;30717;-76
2022/03/26 18:04:24;;;;;;;3.38;2.67;;;16.90;65.80;;;;;;2283176;62;31569;-77
2022/03/26 18:06:54;;;;;;;4.15;2.15;;;16.90;66.00;;;;;;2283603;62;30708;-79
2022/03/26 18:09:20;;;;;;;5.35;2.33;;;16.90;66.20;;;;;;2269354;62;30641;-80
2022/03/26 18:11:46;;;;;;;3.20;2.50;;;16.80;66.30;;;;;;2276325;62;30247;-81
2022/03/26 18:14:12;;;;;;;2.97;2.35;;;16.80;66.60;;;;;;2283046;62;31075;-76
2022/03/26 18:16:37;;;;;;;7.25;3.22;;;16.80;66.70;;;;;;2277986;62;30942;-85
2022/03/26 18:19:03;;;;;;;3.95;2.40;;;16.80;66.80;;;;;;2283908;62;30342;-88
2022/03/26 18:21:29;;;;;;;3.80;2.33;;;16.80;67.00;;;;;;2283679;62;30631;-76
2022/03/26 18:23:55;;;;;;;6.05;2.50;;;16.80;67.00;;;;;;2281551;62;32641;-81
2022/03/26 18:26:21;;;;;;;5.80;2.67;;;16.80;67.10;;;;;;2275797;62;30289;-80
2022/03/26 18:28:47;;;;;;;4.30;2.40;;;16.80;67.80;;;;;;2273935;62;30537;-76
2022/03/26 18:31:14;;;;;;;4.47;2.17;;;16.80;67.30;;;;;;2276208;62;30663;-77
2022/03/26 18:33:41;;;;;;;2.30;2.10;;;16.80;68.30;;;;;;2283453;62;30889;-78
2022/03/26 18:36:07;;;;;;;4.15;2.08;;;16.90;67.70;;;;;;2283592;62;30129;-78
2022/03/26 18:38:33;;;;;;;2.88;2.25;;;16.90;67.80;;;;;;2284689;62;30852;-76
2022/03/26 18:40:59;;;;;;;1.83;1.70;;;17.00;67.90;;;;;;2283200;62;30348;-78
2022/03/26 18:43:25;;;;;;;1.90;1.80;;;17.00;67.80;;;;;;2283460;62;30865;-77
2022/03/26 18:45:51;;;;;;;2.95;1.77;;;17.10;67.90;;;;;;2290612;62;30515;-78
2022/03/26 18:48:17;;;;;;;3.05;1.83;;;17.10;67.70;;;;;;2286735;62;30689;-76
2022/03/26 18:50:43;;;;;;;3.13;1.60;;;17.10;67.60;;;;;;2284373;62;30358;-79
2022/03/26 18:53:12;;;;;;;4.55;1.80;;;17.10;68.30;;;;;;2284556;62;31058;-76
2022/03/26 18:55:38;;;;;;;2.10;1.70;;;17.10;67.60;;;;;;2283506;62;30606;-79
2022/03/26 18:58:04;;;;;;;2.25;1.77;;;17.10;67.70;;;;;;2282217;62;30274;-81
2022/03/26 19:00:34;;;;;;;1.95;1.80;;;17.10;67.90;;;;;;2283348;62;30378;-78
2022/03/26 19:03:07;;;;;;;2.83;1.70;;;17.10;68.00;;;;;;2284554;62;30684;-79
2022/03/26 19:05:34;;;;;;;3.30;1.80;;;17.10;68.10;;;;;;2284090;62;30423;-79
2022/03/26 19:08:01;;;;;;;4.40;1.80;;;17.10;68.10;;;;;;2276702;62;30836;-78
2022/03/26 19:10:27;;;;;;;5.40;2.30;;;17.10;68.30;;;;;;2275680;62;30553;-79
2022/03/26 19:12:53;;;;;;;2.35;1.98;;;17.10;68.50;;;;;;2276677;62;32546;-84
2022/03/26 19:15:19;;;;;;;8.27;2.22;;;17.10;68.60;;;;;;2276457;62;30255;-78
2022/03/26 19:17:45;;;;;;;2.58;2.00;;;17.00;68.60;;;;;;2284123;62;30249;-78
2022/03/26 19:20:11;;;;;;;3.15;2.00;;;17.10;68.60;;;;;;2276618;62;30021;-77
2022/03/26 19:22:37;;;;;;;1.95;1.83;;;17.10;68.70;;;;;;2269784;62;30230;-77
2022/03/26 19:25:09;;;;;;;2.40;1.88;;;17.10;68.80;;;;;;2276468;62;30616;-78
2022/03/26 19:27:35;;;;;;;1.95;1.73;;;17.10;69.00;;;;;;2284193;62;30306;-77
2022/03/26 19:30:01;;;;;;;2.88;2.47;;;17.10;69.00;;;;;;2284322;62;30068;-77
2022/03/26 19:32:29;;;;;;;3.35;1.83;;;17.10;69.30;;;;;;2276624;62;31399;-77
2022/03/26 19:34:55;;;;;;;2.00;1.80;;;17.10;69.50;;;;;;2285617;62;30833;-77
2022/03/26 19:37:21;;;;;;;2.33;1.85;;;17.20;69.50;;;;;;2281548;62;30118;-77
2022/03/26 19:39:46;;;;;;;2.17;1.70;;;17.20;69.50;;;;;;2268544;62;30445;-83
2022/03/26 19:42:12;;;;;;;3.85;1.70;;;17.30;69.60;;;;;;2275725;62;30223;-77
2022/03/26 19:44:38;;;;;;;2.55;1.38;;;17.30;69.60;;;;;;2268326;62;30751;-83
2022/03/26 19:47:04;;;;;;;3.13;1.55;;;17.30;69.40;;;;;;2275316;62;30568;-73
2022/03/26 19:49:31;;;;;;;2.83;1.30;;;17.30;69.30;;;;;;2275779;62;30413;-73
2022/03/26 19:52:00;;;;;;;2.78;1.60;;;17.40;69.40;;;;;;2276392;62;31250;-73
2022/03/26 19:54:26;;;;;;;1.92;1.45;;;17.40;69.20;;;;;;2276567;62;31770;-74
2022/03/26 19:56:53;;;;;;;2.83;1.55;;;17.40;69.10;;;;;;2284131;62;30290;-82
2022/03/26 19:59:21;;;;;;;2.60;1.35;;;17.50;69.20;;;;;;2276796;62;30037;-83
2022/03/26 20:01:48;;;;;;;1.25;1.25;;;17.50;69.20;;;;;;2282964;62;30204;-83
2022/03/26 20:04:15;;;;;;;1.50;1.08;;;17.50;69.20;;;;;;2283137;62;31387;-85
2022/03/26 20:06:41;;;;;;;2.13;1.40;;;17.60;69.40;;;;;;2275707;62;30110;-84
2022/03/26 20:09:07;;;;;;;1.50;1.40;;;17.60;69.30;;;;;;2282447;62;30584;-84
2022/03/26 20:11:33;;;;;;;1.45;1.30;;;17.60;69.30;;;;;;2283071;62;31625;-84
2022/03/26 20:13:59;;;;;;;0.95;0.95;;;17.60;69.30;;;;;;2282562;62;30571;-86
2022/03/26 20:25:13;;;;;;;2.15;1.30;;;17.70;69.30;;;;;;2221633;64;30148;-84
2022/03/26 20:27:42;;;;;;;0.82;0.82;;;17.70;69.10;;;;;;2231939;63;30267;-85
2022/03/26 20:30:12;;;;;;;1.85;0.98;;;17.70;69.80;;;;;;2224645;64;30071;-86
2022/03/26 20:32:43;;;;;;;0.80;0.80;;;17.80;69.00;;;;;;2227711;64;31162;-84
2022/03/26 20:35:09;;;;;;;1.27;1.10;;;17.80;68.90;;;;;;2220425;64;30831;-86
2022/03/26 20:37:36;;;;;;;0.73;0.73;;;17.80;68.90;;;;;;2220376;64;30112;-86
2022/03/26 20:40:06;;;;;;;0.93;0.90;;;17.80;68.80;;;;;;2226531;64;30229;-85
2022/03/26 20:42:33;;;;;;;0.70;0.70;;;17.80;68.80;;;;;;2211509;64;30719;-86
2022/03/26 20:44:59;;;;;;;1.10;1.00;;;17.80;68.80;;;;;;2219509;64;30277;-84
2022/03/26 20:47:26;;;;;;;1.38;0.80;;;17.80;68.70;;;;;;2219522;64;30476;-84
2022/03/26 20:49:52;;;;;;;0.60;0.60;;;17.80;68.70;;;;;;2219549;64;30403;-84
2022/03/26 20:52:18;;;;;;;1.10;0.95;;;17.80;68.60;;;;;;2218339;64;30750;-84
2022/03/26 20:54:44;;;;;;;2.13;0.98;;;17.80;68.60;;;;;;2221966;64;30297;-85
2022/03/26 20:57:10;;;;;;;0.80;0.80;;;17.80;68.60;;;;;;2222700;64;30216;-84
2022/03/26 20:59:38;;;;;;;1.00;0.93;;;17.80;68.40;;;;;;2226942;63;30238;-83
2022/03/26 21:02:10;;;;;;;2.55;0.90;;;17.80;68.40;;;;;;2227246;64;30380;-83
2022/03/26 21:04:42;;;;;;;2.47;0.70;;;17.70;68.70;;;;;;2218883;64;31899;-84
2022/03/26 21:07:10;;;;;;;1.67;0.90;;;17.80;68.80;;;;;;2213522;64;30250;-84
2022/03/26 21:09:41;;;;;;;1.17;0.70;;;17.80;68.80;;;;;;2219450;64;30426;-84
2022/03/26 21:12:13;;;;;;;0.77;0.77;;;17.80;68.80;;;;;;2212609;64;30350;-84
2022/03/26 21:14:39;;;;;;;2.92;0.85;;;17.80;68.80;;;;;;2218631;64;30556;-84
2022/03/26 21:17:05;;;;;;;1.35;0.70;;;17.80;68.80;;;;;;2218340;64;32240;-76
2022/03/26 21:19:33;;;;;;;4.07;1.10;;;17.80;69.00;;;;;;2218336;64;30761;-75
2022/03/26 21:22:02;;;;;;;0.93;0.90;;;17.80;68.80;;;;;;2219329;64;30915;-75
2022/03/26 21:25:44;;;;;;;0.80;0.75;;;17.80;68.60;;;;;;2217656;64;32262;-75
2022/03/26 21:27:14;;;;;;;2.05;0.75;;;17.80;68.50;;;;;;2218771;64;30326;-76
2022/03/26 21:29:40;;;;;;;1.60;0.63;;;17.80;68.50;;;;;;2212355;64;31308;-76
2022/03/26 21:32:06;;;;;;;0.85;0.82;;;17.80;68.50;;;;;;2218915;64;32515;-77
2022/03/26 21:34:33;;;;;;;2.58;0.98;;;17.80;68.40;;;;;;2219153;64;30257;-76
2022/03/26 21:36:59;;;;;;;1.25;0.90;;;17.80;68.40;;;;;;2219234;64;30155;-75
2022/03/26 21:39:35;;;;;;;0.70;0.70;;;17.80;68.40;;;;;;2212618;64;30400;-76
2022/03/26 21:42:01;;;;;;;1.58;0.90;;;17.80;68.40;;;;;;2219115;64;32061;-75
2022/03/26 21:44:27;;;;;;;1.52;0.77;;;17.80;68.40;;;;;;2219113;64;30546;-77
2022/03/26 21:46:53;;;;;;;1.80;0.77;;;17.80;68.30;;;;;;2219086;64;30209;-90
2022/03/26 21:49:19;;;;;;;2.92;0.68;;;17.80;68.10;;;;;;2218007;64;30764;-79
2022/03/26 21:51:45;;;;;;;0.73;0.73;;;17.80;68.10;;;;;;2219153;64;31602;-78
2022/03/26 21:54:10;;;;;;;0.60;0.60;;;17.80;68.40;;;;;;2219075;64;30556;-80
2022/03/26 21:56:36;;;;;;;2.00;0.68;;;17.80;68.50;;;;;;2212332;64;30679;-80
2022/03/26 21:59:02;;;;;;;2.22;0.73;;;17.80;68.50;;;;;;2219483;64;31042;-79
2022/03/26 22:01:28;;;;;;;0.82;0.68;;;17.80;68.60;;;;;;2210985;64;30377;-80
2022/03/26 22:03:54;;;;;;;3.53;0.80;;;17.80;68.60;;;;;;2218846;64;30505;-79
2022/03/26 22:06:22;;;;;;;0.47;0.47;;;17.90;68.70;;;;;;2211285;64;30197;-78
2022/03/26 22:08:51;;;;;;;1.20;0.80;;;17.80;68.60;;;;;;2225980;64;30650;-76
2022/03/26 22:11:17;;;;;;;0.63;0.63;;;17.90;68.70;;;;;;2221650;63;31071;-80
2022/03/26 22:13:44;;;;;;;1.13;0.80;;;17.80;68.50;;;;;;2218837;64;30897;-87
2022/03/26 22:16:13;;;;;;;1.10;0.80;;;17.90;68.50;;;;;;2217673;64;30930;-86
2022/03/26 22:18:39;;;;;;;0.52;0.50;;;17.80;68.70;;;;;;2218053;64;31438;-85
2022/03/26 22:21:04;;;;;;;1.13;1.02;;;17.80;68.70;;;;;;2218559;64;31098;-83
2022/03/26 22:23:30;;;;;;;0.80;0.80;;;17.80;68.80;;;;;;2218883;64;30561;-81
2022/03/26 22:25:56;;;;;;;0.77;0.60;;;17.90;68.90;;;;;;2211503;64;30356;-80
2022/03/26 22:28:31;;;;;;;0.60;0.60;;;17.90;68.80;;;;;;2218625;64;30624;-86
2022/03/26 22:30:57;;;;;;;0.98;0.70;;;17.90;68.80;;;;;;2217688;64;31909;-82
2022/03/26 22:33:23;;;;;;;0.93;0.60;;;17.90;68.80;;;;;;2211479;64;30288;-80
2022/03/26 22:35:52;;;;;;;0.90;0.90;;;17.90;68.70;;;;;;2217371;64;30482;-81
2022/03/26 22:38:19;;;;;;;0.80;0.80;;;18.00;68.70;;;;;;2218779;64;30159;-83
2022/03/26 22:40:47;;;;;;;1.75;0.70;;;17.90;69.20;;;;;;2210981;64;31337;-83
2022/03/26 22:43:15;;;;;;;2.22;0.60;;;17.90;68.50;;;;;;2217883;64;30242;-79
2022/03/26 22:45:41;;;;;;;0.80;0.80;;;17.90;68.80;;;;;;2218661;64;30227;-74
2022/03/26 22:48:08;;;;;;;0.80;0.65;;;17.90;68.70;;;;;;2211847;64;30722;-77
2022/03/26 22:50:34;;;;;;;1.42;0.60;;;17.90;68.50;;;;;;2218713;64;31173;-77
2022/03/26 22:53:00;;;;;;;1.23;0.70;;;17.90;68.30;;;;;;2218852;64;31309;-78
2022/03/26 22:55:30;;;;;;;1.05;0.65;;;17.90;68.10;;;;;;2211363;64;30621;-75
2022/03/26 22:58:03;;;;;;;1.35;0.60;;;17.90;68.00;;;;;;2211701;64;30560;-83
2022/03/26 23:00:31;;;;;;;3.50;0.82;;;17.90;67.90;;;;;;2211952;64;30180;-76
2022/03/26 23:03:00;;;;;;;0.70;0.70;;;18.00;68.10;;;;;;2218263;64;32104;-74
2022/03/26 23:05:26;;;;;;;1.63;0.88;;;18.00;68.10;;;;;;2218568;64;30709;-74
2022/03/26 23:07:55;;;;;;;1.85;0.88;;;17.90;68.00;;;;;;2218682;64;30652;-74
2022/03/26 23:10:22;;;;;;;1.15;0.75;;;17.90;68.10;;;;;;2211757;64;31036;-75
2022/03/26 23:12:48;;;;;;;2.58;0.70;;;17.90;68.30;;;;;;2205215;64;30247;-74
2022/03/26 23:15:17;;;;;;;0.50;0.50;;;17.90;68.30;;;;;;2210671;64;30283;-73
2022/03/26 23:17:45;;;;;;;0.80;0.80;;;17.90;68.30;;;;;;2210599;64;30741;-73
2022/03/26 23:20:12;;;;;;;1.73;0.55;;;17.90;68.40;;;;;;2218387;64;30358;-74
2022/03/26 23:22:39;;;;;;;2.33;0.95;;;17.90;68.40;;;;;;2219508;64;30648;-74
2022/03/26 23:25:06;;;;;;;0.50;0.50;;;17.90;68.30;;;;;;2213058;64;30617;-74
2022/03/26 23:27:31;;;;;;;0.90;0.90;;;18.00;68.40;;;;;;2213157;64;30596;-75